Latest Coastal Weather Observations for Esperance

IDW60701

Issued at 10:02 am WST Wednesday 27 May 2015 (issued every 10 minutes, with the page automatically refreshed every 10 minutes)

About coastal observations | Map of coastal stations | Coastal observations for WA | Marine services | Other Formats
Station Details ID: 009789 Name: ESPERANCE Lat: -33.83 Lon: 121.89 Height: 25.0 m
Data from the previous 72 hours. | See also: Recent months at Esperance
Date/Time
WST
Temp

°C
Wind Pressure Rain
since 9am
mm
Weather Cloud Vis
km
Sea
Height
m
Swell
Dir
 
Speed
knots
Gust
knots
hPa Trend Height
m
Period
s
Dir
27/09:30am 12.7 WNW 9 12 1022.3 - 0.0 - Mostly clear 10 - - - -
27/09:00am 11.9 WNW 10 13 1022.4 R 2.8 Fine Mostly cloudy 25 - - - -
27/08:30am 11.6 WNW 9 13 1022.4 - 2.8 - Mostly clear 10 - - - -
27/08:00am 10.7 WNW 8 11 1022.0 - 2.8 - Mostly clear 10 - - - -
27/07:30am 10.1 NW 11 13 1021.9 - 2.8 - Mostly clear 10 - - - -
27/06:30am 9.8 NW 8 11 1021.5 - 2.8 - Mostly clear 10 - - - -
27/06:00am 9.9 NW 7 9 1021.3 F 2.8 Fine Partly cloudy 25 - - - -
27/05:30am 10.3 NW 8 10 1021.1 - 2.8 - Partly cloudy 10 - - - -
27/05:00am 10.3 WNW 5 8 1021.1 - 2.8 - - 10 - - - -
27/04:30am 10.8 WNW 6 9 1021.0 - 2.8 - Partly cloudy 10 - - - -
27/04:00am 11.1 WNW 7 11 1021.1 - 2.8 - Cloudy 10 - - - -
27/03:30am 10.9 NW 8 9 1021.3 - 2.8 - Partly cloudy 10 - - - -
27/03:00am 11.2 NW 6 10 1021.3 F 2.8 - Mostly cloudy 10 - - - -
27/02:30am 11.5 W 5 8 1021.5 - 2.8 - Partly cloudy 10 - - - -
27/02:00am 11.6 NW 7 9 1021.5 - 2.8 - Partly cloudy 10 - - - -
27/01:30am 11.6 NW 7 9 1021.6 - 2.8 - Partly cloudy 10 - - - -
27/01:00am 11.7 WNW 5 8 1021.9 - 2.6 - Partly cloudy 10 - - - -
27/12:30am 11.7 NW 6 7 1021.9 - 2.4 - Cloudy 10 - - - -
27/12:00am 11.7 W 5 7 1022.3 F 2.4 Recent precip. Cloudy 10 - - - -
 
Date/Time
WST
Temp

°C
Wind Pressure Rain
since 9am
mm
Weather Cloud Vis
km
Sea
Height
m
Swell
Dir
 
Speed
knots
Gust
knots
hPa Trend Height
m
Period
s
Dir
26/11:55pm 11.8 W 5 7 1022.4 - 2.4 - Partly cloudy 10 - - - -
26/11:34pm 12.0 WNW 8 10 1022.5 - 2.4 - Partly cloudy 7 - - - -
26/11:30pm 12.0 WNW 7 10 1022.7 - 2.2 - Partly cloudy 10 - - - -
26/11:00pm 12.0 NW 5 6 1022.6 - 2.2 - Partly cloudy 10 - - - -
26/10:30pm 12.4 NW 5 7 1022.8 - 2.2 - Cloudy 10 - - - -
26/10:00pm 12.4 NW 5 6 1022.9 - 2.2 - Partly cloudy 10 - - - -
26/09:59pm 12.4 NW 5 6 1022.9 - 2.2 - Partly cloudy 10 - - - -
26/09:40pm 12.4 WNW 6 8 1023.3 - 2.0 - Partly cloudy 7 - - - -
26/09:30pm 12.3 NNW 5 6 1023.0 - 1.8 - Partly cloudy 10 - - - -
26/09:00pm 12.5 NW 5 6 1022.9 F 1.8 - Cloudy 10 - - - -
26/08:30pm 12.5 NW 5 6 1023.0 - 1.8 - Partly cloudy 10 - - - -
26/08:00pm 13.3 WSW 5 5 1022.9 - 1.8 - Mostly clear 10 - - - -
26/07:30pm 12.9 SW 5 7 1022.9 - 1.8 - Mostly clear 10 - - - -
26/07:00pm 13.1 WSW 6 10 1022.8 - 1.6 - Mostly clear 10 - - - -
26/06:41pm 13.6 SW 5 9 1022.6 - 0.4 Showers Partly cloudy 6 - - - -
26/06:30pm 13.6 WSW 4 7 1022.3 - 0.0 - Mostly clear 10 - - - -
26/06:00pm 13.4 SW 6 8 1022.2 R 0.0 Haze Mostly clear 20 - - - -
26/05:30pm 13.8 SW 6 9 1022.1 - 0.0 - Mostly clear 10 - - - -
26/05:00pm 13.9 SW 6 8 1021.9 - 0.0 - Mostly clear 10 - - - -
26/04:30pm 14.7 SW 9 13 1021.7 - 0.0 - Mostly clear 10 - - - -
26/04:00pm 15.3 SW 9 15 1021.7 - 0.0 - Mostly clear 10 - - - -
26/03:30pm 16.0 SW 7 11 1021.2 - 0.0 Showers Mostly cloudy 10 - - - -
26/03:00pm 17.0 WSW 8 13 1021.0 R 0.0 Distant precip. Partly cloudy 30 - - - -
26/02:30pm 15.8 SW 9 14 1020.9 - 0.0 - Mostly clear 10 - - - -
26/02:00pm 16.0 SW 14 25 1020.7 - 0.0 - Partly cloudy 10 - - - -
26/01:30pm 18.9 W 13 21 1020.3 - 0.0 - Mostly clear 10 - - - -
26/01:00pm 18.7 W 12 22 1020.4 - 0.0 - Mostly clear 10 - - - -
26/12:30pm 19.4 W 13 21 1020.5 - 0.0 - Mostly clear 10 - - - -
26/12:00pm 18.7 W 12 19 1020.5 R 0.0 Fine Mostly clear 30 - - - -
26/11:30am 18.6 W 14 22 1020.7 - 0.0 - Mostly clear 10 - - - -
26/11:00am 18.6 W 11 17 1020.9 - 0.0 - Mostly clear 10 - - - -
26/10:30am 18.2 WNW 10 14 1021.0 - 0.0 - Mostly clear 10 - - - -
26/10:00am 17.0 WNW 9 14 1021.2 - 0.0 - Mostly clear 10 - - - -
26/09:30am 15.4 WNW 9 12 1021.2 - 0.0 - Mostly clear 10 - - - -
26/09:00am 14.5 WNW 9 12 1021.0 R 0.4 Fine Mostly clear 30 - - - -
26/08:30am 12.8 WNW 10 13 1020.9 - 0.4 - Mostly clear 10 - - - -
26/08:00am 11.7 WNW 10 13 1021.0 - 0.4 - Mostly clear 10 - - - -
26/07:30am 10.9 NW 8 11 1020.8 - 0.4 - - 10 - - - -
26/07:00am 10.2 NW 8 10 1020.5 - 0.4 - - 10 - - - -
26/06:30am 10.5 WNW 8 12 1020.2 - 0.4 - - 10 - - - -
26/06:00am 10.9 WNW 7 10 1019.6 F 0.4 Shallow fog Mostly clear 25 - - - -
26/05:30am 10.8 NW 6 8 1019.3 - 0.4 - Partly cloudy 10 - - - -
26/05:00am 11.0 WNW 9 11 1019.3 - 0.4 - Partly cloudy 10 - - - -
26/04:30am 11.2 WNW 8 10 1019.5 - 0.4 - Partly cloudy 10 - - - -
26/04:00am 11.4 WNW 5 7 1019.4 - 0.4 - Partly cloudy 10 - - - -
26/03:30am 11.6 W 6 7 1019.5 - 0.4 - Partly cloudy 10 - - - -
26/03:09am 11.9 W 5 7 1019.5 - 0.4 - Partly cloudy 10 - - - -
26/03:00am 11.9 WSW 5 7 1019.6 F 0.4 - Mostly cloudy 9 - - - -
26/02:53am 12.0 W 5 6 1019.7 - 0.4 - Partly cloudy 0.8 - - - -
26/02:30am 12.1 WNW 4 4 1019.8 - 0.4 - Cloudy 0.3 - - - -
26/02:00am 11.9 NW 4 5 1019.8 - 0.4 - Cloudy 0.2 - - - -
26/01:30am 11.7 NW 5 7 1019.9 - 0.2 - Cloudy 0.2 - - - -
26/01:04am 11.7 NW 5 6 1020.0 - 0.2 - Partly cloudy 0.3 - - - -
26/01:00am 11.8 NW 5 6 1020.0 - 0.2 - Partly cloudy 0.5 - - - -
26/12:33am 12.2 WNW 5 7 1020.0 - 0.2 - Partly cloudy 7 - - - -
26/12:30am 12.4 WNW 5 6 1020.1 - 0.2 - Partly cloudy 9 - - - -
26/12:12am 12.1 NNW 5 5 1020.2 - 0.2 - Partly cloudy 10 - - - -
26/12:00am 12.4 NW 5 5 1020.3 F 0.2 - Partly cloudy 5 - - - -
 
Date/Time
WST
Temp

°C
Wind Pressure Rain
since 9am
mm
Weather Cloud Vis
km
Sea
Height
m
Swell
Dir
 
Speed
knots
Gust
knots
hPa Trend Height
m
Period
s
Dir
25/11:30pm 13.0 NW 3 4 1020.5 - 0.2 - Partly cloudy 5 - - - -
25/11:00pm 12.9 NW 4 5 1020.7 - 0.2 - Partly cloudy 5 - - - -
25/10:31pm 13.2 NNE 5 7 1020.6 - 0.2 - Partly cloudy 7 - - - -
25/10:30pm 13.2 NE 5 7 1020.6 - 0.2 - Partly cloudy 8 - - - -
25/10:11pm 13.7 N 1 4 1020.8 - 0.2 - Partly cloudy 10 - - - -
25/10:00pm 14.2 CALM 0 0 1020.9 - 0.2 - Partly cloudy 7 - - - -
25/09:56pm 14.0 CALM 0 0 1020.9 - 0.2 - Partly cloudy 7 - - - -
25/09:30pm 14.3 W 1 4 1021.0 - 0.0 - Partly cloudy 10 - - - -
25/09:00pm 14.5 SW 6 8 1021.1 F 0.0 - Cloudy 10 - - - -
25/08:30pm 14.4 SE 3 5 1020.8 - 0.0 - Partly cloudy 10 - - - -
25/08:00pm 14.5 ENE 2 4 1020.7 - 0.0 - Partly cloudy 10 - - - -
25/07:30pm 14.9 E 3 4 1020.6 - 0.0 - - 10 - - - -
25/07:00pm 16.0 ESE 5 7 1020.7 - 0.0 - Partly cloudy 10 - - - -
25/06:30pm 15.6 SE 4 5 1020.8 - 0.0 - Mostly clear 10 - - - -
25/06:00pm 15.7 SSE 4 5 1020.7 S 0.0 Fine Mostly clear 30 - - - -
25/05:30pm 15.8 S 5 7 1020.6 - 0.0 - Mostly clear 10 - - - -
25/05:00pm 16.2 S 5 7 1020.3 - 0.0 - Mostly clear 10 - - - -
25/04:30pm 16.7 SSE 7 9 1020.0 - 0.0 - Mostly clear 10 - - - -
25/04:00pm 17.5 SSE 7 10 1020.2 - 0.0 - Mostly clear 10 - - - -
25/03:30pm 18.4 SSE 6 10 1020.1 - 0.0 - Mostly clear 10 - - - -
25/03:00pm 18.7 SSE 5 7 1020.1 F 0.0 Fine Mostly clear 40 - - - -
25/02:30pm 18.6 S 7 8 1020.2 - 0.0 - Mostly clear 10 - - - -
25/02:00pm 19.1 S 7 8 1020.1 - 0.0 - Mostly clear 10 - - - -
25/01:30pm 19.8 SW 4 10 1020.3 - 0.0 - Mostly clear 10 - - - -
25/01:00pm 20.9 NW 4 8 1020.5 - 0.0 - Mostly clear 10 - - - -
25/12:30pm 20.3 NNW 4 7 1020.8 - 0.0 - Mostly clear 10 - - - -
25/12:00pm 19.5 NNW 5 7 1021.2 F 0.0 Fine Mostly clear 40 - - - -
25/11:30am 19.1 N 6 8 1021.6 - 0.0 - Mostly clear 10 - - - -
25/11:00am 19.0 N 7 10 1022.2 - 0.0 - Mostly clear 10 - - - -
25/10:30am 17.9 N 5 7 1022.6 - 0.0 - Partly cloudy 10 - - - -
25/10:00am 15.3 N 9 12 1022.8 - 0.0 - Partly cloudy 10 - - - -
25/09:30am 14.8 N 8 10 1023.0 - 0.0 - - 10 - - - -
25/09:00am 13.7 N 8 10 1023.2 F 0.2 Fine Partly cloudy 35 - - - -
25/08:30am 12.5 N 9 11 1023.4 - 0.2 - Partly cloudy 10 - - - -
25/08:00am 11.6 N 7 9 1023.6 - 0.2 - Mostly cloudy 10 - - - -
25/07:49am 11.3 N 7 11 1023.5 - 0.2 - Mostly cloudy 10 - - - -
25/07:30am 11.0 N 7 9 1023.4 - 0.2 Mist Cloudy 2 - - - -
25/07:16am 10.7 N 5 7 1023.2 - 0.2 Mist Cloudy 5 - - - -
25/07:00am 10.3 N 5 6 1023.3 - 0.2 - Mostly cloudy 10 - - - -
25/06:30am 10.0 N 7 8 1023.2 - 0.2 - Mostly cloudy 10 - - - -
25/06:00am 8.9 N 6 7 1023.1 S 0.2 Fine Mostly cloudy 25 - - - -
25/05:30am 8.8 N 5 6 1022.8 - 0.2 - Partly cloudy 10 - - - -
25/05:00am 8.8 N 5 5 1022.7 - 0.2 - Partly cloudy 10 - - - -
25/04:56am 8.8 N 5 5 1022.7 - 0.2 - Partly cloudy 10 - - - -
25/04:30am 9.1 N 4 5 1022.7 - 0.2 - - 2 - - - -
25/04:20am 9.3 N 3 4 1022.7 - 0.2 - - 6 - - - -
25/04:00am 9.4 N 3 3 1022.7 - 0.2 - - 10 - - - -
25/03:30am 9.7 N 4 4 1022.5 - 0.2 - - 10 - - - -
25/03:00am 10.1 N 4 4 1022.6 R 0.2 - - 10 - - - -
25/02:30am 10.2 N 4 5 1022.7 - 0.2 - - 10 - - - -
25/02:00am 10.4 N 5 7 1022.8 - 0.2 - - 10 - - - -
25/01:30am 10.4 N 7 8 1022.6 - 0.2 - - 10 - - - -
25/01:00am 10.4 N 5 6 1022.6 - 0.0 - - 10 - - - -
25/12:30am 10.5 N 4 5 1022.7 - 0.0 - - 10 - - - -
25/12:00am 10.4 N 5 6 1022.6 F 0.0 - - 10 - - - -
 
Date/Time
WST
Temp

°C
Wind Pressure Rain
since 9am
mm
Weather Cloud Vis
km
Sea
Height
m
Swell
Dir
 
Speed
knots
Gust
knots
hPa Trend Height
m
Period
s
Dir
24/11:30pm 11.1 NNE 7 9 1022.8 - 0.0 - - 10 - - - -
24/11:00pm 11.5 NNE 7 8 1022.9 - 0.0 - - 10 - - - -
24/10:30pm 11.3 NE 7 8 1023.0 - 0.0 - - 10 - - - -
24/10:00pm 10.7 NNE 5 7 1023.2 - 0.0 - - 10 - - - -
24/09:30pm 11.1 NNE 6 7 1023.3 - 0.0 - - 10 - - - -
24/09:00pm 11.9 NNE 5 6 1023.2 F 0.0 - - 10 - - - -
24/08:30pm 12.1 NNE 5 5 1023.1 - 0.0 - - 10 - - - -
24/08:00pm 12.6 NE 5 6 1022.9 - 0.0 - - 10 - - - -
24/07:30pm 13.8 NNE 3 4 1023.0 - 0.0 - - 10 - - - -
24/07:00pm 13.6 E 3 5 1022.8 - 0.0 - Mostly clear 10 - - - -
24/06:30pm 14.9 SSE 4 4 1022.5 - 0.0 - Partly cloudy 10 - - - -
24/06:00pm 14.6 SW 3 4 1022.3 R 0.0 Fine Mostly cloudy 25 - - - -
24/05:30pm 15.0 W 4 5 1022.2 - 0.0 - Mostly clear 10 - - - -
24/05:00pm 15.6 S 1 4 1021.9 - 0.0 - Mostly clear 10 - - - -
24/04:30pm 16.0 S 7 9 1021.8 - 0.0 - Mostly clear 10 - - - -
24/04:00pm 16.1 SSW 7 10 1021.8 - 0.0 - Partly cloudy 10 - - - -
24/03:30pm 16.5 S 7 10 1021.6 - 0.0 - Partly cloudy 10 - - - -
24/03:00pm 17.1 SSE 5 6 1021.6 R 0.0 Distant precip. Mostly cloudy 20 - - - -
24/02:30pm 16.8 S 5 7 1021.5 - 0.0 - Partly cloudy 10 - - - -
24/02:00pm 16.8 SSW 7 9 1021.4 - 0.0 - Partly cloudy 10 - - - -
24/01:30pm 17.2 S 6 9 1021.4 - 0.0 - Partly cloudy 10 - - - -
24/01:00pm 17.5 S 3 8 1021.5 - 0.0 - Partly cloudy 10 - - - -
24/12:30pm 17.5 W 3 5 1021.7 - 0.0 - Partly cloudy 10 - - - -
24/12:00pm 17.1 WNW 5 8 1021.9 R 0.0 Distant precip. Mostly cloudy 25 - - - -
24/11:30am 16.7 WNW 4 6 1022.2 - 0.0 - Mostly clear 10 - - - -
24/11:00am 16.5 W 5 7 1022.3 - 0.0 - Mostly clear 10 - - - -
24/10:30am 16.5 WSW 4 6 1022.5 - 0.0 - Mostly clear 10 - - - -

Other Formats:

Comma delimited format used in spreadsheet applications
http://www.bom.gov.au/fwo/IDW60701/IDW60701.94638.axf

JavaScript Object Notation format (JSON) in row-major order
http://www.bom.gov.au/fwo/IDW60701/IDW60701.94638.json